Clementsville, Idaho
Current Conditions -  °F | °C
As of 11:53 AM on Tuesday 21 Oct 2014 (Local Time) from KRXE Reporting Station
Overcast Overcast  
Wind Chill: 38°   Ceiling: 6000
Heat Index: 45°   Visibility: 10mi
Dew Point: 35°   Wind: 16mph
Humidity: 68%   Direction: 200°SSW
Pressure: 29.99"   Gusts: 28mph
Location:  43.8021°N, 111.594°W
Report Text: KRXE 211753Z AUTO 20014G24KT 10SM OVC060 07/02 A2999 RMK AO2 PK WND 18026/1740 RAB43E53 SLP150 P0000 60001 T00720017 10106 20061 51028
Loading
Personal Weather Stations






























Interactive Weather Map
Tropical Storm Tracking
New forecast layout! Learn more

10-Day Weather Forecast

Advertisements
Track Severe Weather on mobile